Stampede, Texas
Current Conditions -  °F | °C
As of 6:15 AM on Saturday 20 Dec 2014 (Local Time) from KTPL Reporting Station
Overcast Overcast  
Wind Chill: 42°   Ceiling: 2100
Heat Index: 46°   Visibility: 7mi
Dew Point: 41°   Wind: 8mph
Humidity: 81%   Direction: 340°NNW
Pressure: 30.2"   Gusts: NA
Location:  31.2688°N, 97.3985°W
Report Text: KTPL 201215Z AUTO 34007KT 7SM OVC021 08/05 A3020 RMK AO1
Loading
Personal Weather Stations






























Interactive Weather Map New forecast layout! Learn more

10-Day Weather Forecast

Advertisements
Track Severe Weather on mobile